E85 weather

Denio Junction Airport
Denio, Nevada, United States

Public forecast

Using degrees Fahrenheit for public forecast. Weather courtesy of forecast.io.

METAR (pilot weather report)

Closest report is Rome State Airport, 50.0 nm (92.6 km) NE. Retrieved 2019/09/19 02:52 UTC (28 minutes ago):

KREO 190252Z AUTO 05005KT 12/07 A2990 RMK AO1 SLP113 T01220067 52015

TAF (pilot weather forecast)

Forecast is more than 12 hours old.

Closest forecast is Winnemucca Municipal Airport, 73.6 nm (136.2 km) SSE. Retrieved 2019/09/18 00:33 UTC (1 day ago):

TAF KWMC 182330Z 1900/1924 03008KT P6SM VCSH SCT060 SCT100 FM191200 VRB06KT 5SM -SHRA BKN060 BKN200 FM191700 03008KT 5SM -SHRA SCT025 OVC050